Time;durP1;ratioP1;P1;durP2;ratioP2;P2;SDS_P1;SDS_P2;PMS_P1;PMS_P2;Temp;Humidity;BMP_temperature;BMP_pressure;BME280_temperature;BME280_humidity;BME280_pressure;Samples;Min_cycle;Max_cycle;Signal;HPM_P1;HPM_P2
2022/04/10 00:00:05;;;;;;;8.18;2.08;;;;;;;2.35;57.68;100506.50;4981954;28;20112;-44
2022/04/10 00:02:31;;;;;;;4.45;1.83;;;;;;;2.33;57.33;100508.13;4988482;28;20109;-42
2022/04/10 00:04:58;;;;;;;8.57;1.83;;;;;;;2.30;56.61;100512.31;4989463;28;20137;-45
2022/04/10 00:07:25;;;;;;;3.92;2.13;;;;;;;2.28;57.04;100508.84;4979075;28;20058;-44
2022/04/10 00:09:51;;;;;;;4.57;2.25;;;;;;;2.27;56.98;100524.97;4986869;28;20482;-41
2022/04/10 00:12:18;;;;;;;4.72;1.63;;;;;;;2.25;57.52;100516.38;4975769;28;20063;-41
2022/04/10 00:14:45;;;;;;;5.32;1.63;;;;;;;2.22;57.89;100511.16;4983449;28;20109;-39
2022/04/10 00:17:12;;;;;;;4.55;1.67;;;;;;;2.19;57.33;100516.13;4983321;28;20062;-42
2022/04/10 00:19:39;;;;;;;4.47;1.65;;;;;;;2.14;58.15;100513.41;4984464;28;20101;-42
2022/04/10 00:22:07;;;;;;;5.93;1.65;;;;;;;2.11;57.58;100509.84;4982586;28;20051;-43
2022/04/10 00:24:33;;;;;;;6.88;2.08;;;;;;;2.05;58.00;100513.91;4968316;28;20058;-43
2022/04/10 00:27:00;;;;;;;6.65;1.80;;;;;;;2.03;58.07;100517.22;4982411;28;20054;-43
2022/04/10 00:29:27;;;;;;;4.20;2.20;;;;;;;1.98;58.01;100516.16;4978791;28;20058;-42
2022/04/10 00:31:53;;;;;;;3.88;2.10;;;;;;;1.94;57.33;100504.94;4986928;28;20061;-44
2022/04/10 00:34:20;;;;;;;7.30;1.67;;;;;;;1.91;58.87;100505.72;4985096;28;20050;-45
2022/04/10 00:36:47;;;;;;;5.35;1.88;;;;;;;1.89;58.08;100509.03;4984452;28;20129;-42
2022/04/10 00:39:14;;;;;;;5.75;2.05;;;;;;;1.87;57.71;100513.19;4986523;28;20062;-42
2022/04/10 00:41:41;;;;;;;5.63;1.25;;;;;;;1.84;58.36;100507.94;4985089;28;20046;-43
2022/04/10 00:44:10;;;;;;;5.78;2.28;;;;;;;1.82;57.79;100502.75;4983178;28;20116;-41
2022/04/10 00:46:38;;;;;;;5.05;2.15;;;;;;;1.80;58.41;100502.69;4977996;28;20116;-43
2022/04/10 00:49:05;;;;;;;4.78;1.80;;;;;;;1.80;57.94;100506.97;4964847;28;20124;-46
2022/04/10 00:51:41;;;;;;;7.15;1.60;;;;;;;1.78;58.22;100506.88;4983953;28;20054;-44
2022/04/10 00:54:11;;;;;;;3.38;1.40;;;;;;;1.76;58.17;100500.84;4963968;28;20057;-42
2022/04/10 00:56:38;;;;;;;6.38;1.48;;;;;;;1.74;58.39;100501.59;4961023;28;20112;-40
2022/04/10 00:59:05;;;;;;;5.88;1.30;;;;;;;1.72;58.90;100505.78;4982542;28;20065;-42
2022/04/10 01:01:34;;;;;;;4.60;1.48;;;;;;;1.70;58.16;100500.59;4966080;28;20121;-43
2022/04/10 01:04:21;;;;;;;3.55;2.03;;;;;;;1.67;58.88;100495.38;4979083;28;20078;-43
2022/04/10 01:06:50;;;;;;;5.18;2.22;;;;;;;1.65;58.36;100491.84;4975584;28;20113;-40
2022/04/10 01:09:17;;;;;;;3.72;1.65;;;;;;;1.62;59.15;100491.75;4984758;28;20113;-42
2022/04/10 01:11:44;;;;;;;5.82;2.55;;;;;;;1.61;58.67;100484.88;4985261;28;20442;-42
2022/04/10 01:14:12;;;;;;;3.10;1.20;;;;;;;1.59;58.92;100484.81;4983739;28;20131;-42
2022/04/10 01:16:39;;;;;;;2.95;1.63;;;;;;;1.57;58.94;100483.91;4975096;28;20054;-41
2022/04/10 01:19:06;;;;;;;3.10;1.40;;;;;;;1.56;59.16;100487.28;4957691;28;20125;-47
2022/04/10 01:21:38;;;;;;;4.38;1.70;;;;;;;1.54;59.08;100473.56;4976458;28;20466;-43
2022/04/10 01:24:06;;;;;;;4.03;1.98;;;;;;;1.52;59.22;100473.50;4970448;28;20066;-41
2022/04/10 01:26:32;;;;;;;6.90;1.73;;;;;;;1.52;58.58;100486.25;4964866;28;20050;-43
2022/04/10 01:31:45;;;;;;;4.28;1.60;;;;;;;1.45;58.81;100480.84;5063050;28;20927;-42
2022/04/10 01:34:13;;;;;;;6.80;2.33;;;;;;;1.42;58.36;100473.94;5023779;28;20050;-44
2022/04/10 01:36:42;;;;;;;4.03;2.80;;;;;;;1.41;59.50;100474.72;5015706;28;20107;-41
2022/04/10 01:39:10;;;;;;;7.32;3.42;;;;;;;1.38;59.02;100477.16;5038227;28;20099;-41
2022/04/10 01:41:37;;;;;;;7.13;2.72;;;;;;;1.36;59.11;100474.56;5036351;28;20114;-40
2022/04/10 01:44:05;;;;;;;4.35;2.42;;;;;;;1.35;59.31;100477.91;5022811;28;20065;-41
2022/04/10 01:46:33;;;;;;;4.43;2.88;;;;;;;1.37;59.49;100480.50;5050546;28;20105;-42
2022/04/10 01:49:00;;;;;;;5.63;3.05;;;;;;;1.36;59.12;100473.69;5041174;28;20061;-42
2022/04/10 01:51:27;;;;;;;5.30;3.25;;;;;;;1.36;59.21;100473.69;5040362;28;20106;-43
2022/04/10 01:53:54;;;;;;;3.08;2.30;;;;;;;1.36;59.20;100479.66;5043221;28;20099;-41
2022/04/10 01:56:22;;;;;;;4.30;2.35;;;;;;;1.35;59.00;100471.94;5026241;28;20549;-42
2022/04/10 01:58:52;;;;;;;4.50;2.50;;;;;;;1.33;60.33;100473.53;5025174;28;20046;-43
2022/04/10 02:01:21;;;;;;;5.32;2.63;;;;;;;1.32;60.11;100466.69;5024126;28;20042;-48
2022/04/10 02:03:50;;;;;;;7.00;3.08;;;;;;;1.30;59.45;100469.19;5020129;28;20048;-45
2022/04/10 02:06:18;;;;;;;6.47;3.00;;;;;;;1.30;59.61;100473.41;5025475;28;20053;-44
2022/04/10 02:08:45;;;;;;;3.65;1.80;;;;;;;1.28;59.18;100471.66;5044210;28;20433;-45
2022/04/10 02:11:15;;;;;;;3.22;2.55;;;;;;;1.26;59.92;100473.31;5050846;28;20046;-41
2022/04/10 02:13:43;;;;;;;3.42;1.58;;;;;;;1.25;60.38;100470.69;5031392;28;20445;-40
2022/04/10 02:16:15;;;;;;;5.38;3.05;;;;;;;1.24;59.87;100469.81;5026243;28;20115;-42
2022/04/10 02:18:43;;;;;;;4.68;2.50;;;;;;;1.23;60.33;100470.63;5034973;28;20767;-43
2022/04/10 02:21:11;;;;;;;7.72;3.15;;;;;;;1.23;60.49;100467.19;5029794;28;20046;-45
2022/04/10 02:23:38;;;;;;;3.40;2.13;;;;;;;1.22;59.83;100461.19;5024569;28;20501;-41
2022/04/10 02:26:05;;;;;;;5.18;1.73;;;;;;;1.22;60.51;100466.28;5027109;28;20416;-43
2022/04/10 02:28:32;;;;;;;5.05;2.65;;;;;;;1.22;60.54;100475.66;5008718;28;20046;-40
2022/04/10 02:30:58;;;;;;;5.15;2.60;;;;;;;1.21;60.43;100468.81;5025924;28;20046;-42
2022/04/10 02:33:25;;;;;;;5.07;1.60;;;;;;;1.19;59.77;100468.75;5027316;28;20369;-43
2022/04/10 02:35:51;;;;;;;7.95;3.10;;;;;;;1.17;59.95;100472.91;5022588;28;20041;-43
2022/04/10 02:38:19;;;;;;;5.43;2.72;;;;;;;1.16;61.03;100466.06;5036244;28;20053;-40
2022/04/10 02:40:45;;;;;;;3.45;2.78;;;;;;;1.14;60.98;100462.56;5029786;28;20053;-43
2022/04/10 02:43:13;;;;;;;5.82;2.33;;;;;;;1.12;61.05;100474.38;5016141;28;20099;-43
2022/04/10 02:45:41;;;;;;;8.00;3.30;;;;;;;1.13;59.90;100486.34;5012101;28;20046;-41
2022/04/10 02:48:08;;;;;;;6.38;2.40;;;;;;;1.10;60.83;100476.00;5010858;28;20046;-41
2022/04/10 02:50:36;;;;;;;5.22;2.42;;;;;;;1.09;60.95;100474.25;5010104;28;20054;-41
2022/04/10 02:53:03;;;;;;;5.50;2.97;;;;;;;1.06;61.30;100472.44;5013689;28;20102;-43
2022/04/10 02:55:30;;;;;;;5.82;2.35;;;;;;;1.05;61.32;100462.19;5015431;28;20099;-43
2022/04/10 02:57:57;;;;;;;8.15;3.72;;;;;;;1.04;61.45;100480.84;5008230;28;20050;-39
2022/04/10 03:00:23;;;;;;;6.57;3.03;;;;;;;1.04;60.92;100475.75;5005336;28;20560;-41
2022/04/10 03:02:50;;;;;;;5.45;3.20;;;;;;;1.03;61.42;100469.75;5004905;28;20046;-41
2022/04/10 03:05:17;;;;;;;4.60;2.95;;;;;;;1.02;60.43;100475.69;5014589;28;20046;-43
2022/04/10 03:07:43;;;;;;;6.75;2.80;;;;;;;1.01;61.04;100471.34;5013622;28;20080;-41
2022/04/10 03:10:10;;;;;;;5.45;2.38;;;;;;;1.00;61.57;100469.63;5018175;28;20092;-40
2022/04/10 03:12:37;;;;;;;3.55;2.28;;;;;;;0.98;61.57;100468.69;5009280;28;20087;-41
2022/04/10 03:15:04;;;;;;;7.45;2.92;;;;;;;0.98;60.99;100473.81;5018633;28;20041;-42
2022/04/10 03:17:31;;;;;;;4.82;2.72;;;;;;;0.95;61.63;100471.97;5017979;28;20073;-40
2022/04/10 03:19:58;;;;;;;5.25;2.78;;;;;;;0.94;61.02;100470.22;5013551;28;20049;-40
2022/04/10 03:22:24;;;;;;;8.20;2.83;;;;;;;0.93;60.59;100467.59;5021366;28;20428;-41
2022/04/10 03:24:51;;;;;;;8.40;3.15;;;;;;;0.90;61.58;100473.44;5026084;28;20045;-43
2022/04/10 03:27:17;;;;;;;5.07;3.30;;;;;;;0.89;61.10;100469.16;5007059;28;20116;-41
2022/04/10 03:29:44;;;;;;;7.85;2.85;;;;;;;0.87;61.10;100470.75;5014679;28;20073;-41
2022/04/10 03:32:11;;;;;;;8.05;3.38;;;;;;;0.82;61.19;100472.25;5019019;28;20054;-42
2022/04/10 03:34:37;;;;;;;3.60;2.75;;;;;;;0.77;60.89;100472.94;5004912;28;20125;-41
2022/04/10 03:37:04;;;;;;;3.40;2.42;;;;;;;0.74;61.24;100474.44;5004847;28;20099;-42
2022/04/10 03:39:31;;;;;;;6.88;2.80;;;;;;;0.70;61.14;100465.81;4996214;28;20057;-44
2022/04/10 03:41:57;;;;;;;4.38;3.30;;;;;;;0.69;61.16;100469.16;5006428;28;20058;-40
2022/04/10 03:44:24;;;;;;;5.85;2.70;;;;;;;0.69;61.97;100471.72;5004930;28;20116;-41
2022/04/10 03:46:50;;;;;;;8.07;3.22;;;;;;;0.67;61.12;100472.47;4999810;28;20502;-43
2022/04/10 03:49:17;;;;;;;5.45;3.38;;;;;;;0.64;61.19;100468.94;5001582;28;20150;-41
2022/04/10 03:51:44;;;;;;;5.68;2.80;;;;;;;0.63;61.35;100477.41;5006917;28;20057;-41
2022/04/10 03:54:10;;;;;;;6.63;4.10;;;;;;;0.61;61.47;100478.16;4990248;28;20101;-40
2022/04/10 03:56:37;;;;;;;5.38;2.88;;;;;;;0.59;61.64;100482.28;5007186;28;20062;-41
2022/04/10 03:59:04;;;;;;;6.93;4.07;;;;;;;0.55;61.15;100483.84;5006993;28;20057;-41
2022/04/10 04:01:30;;;;;;;9.35;2.95;;;;;;;0.53;61.07;100482.03;5006207;28;20084;-43
2022/04/10 04:04:14;;;;;;;7.82;3.85;;;;;;;0.46;61.60;100481.75;5022516;28;20136;-43
2022/04/10 04:06:41;;;;;;;4.35;2.63;;;;;;;0.44;62.01;100482.50;5010473;28;20705;-41
2022/04/10 04:09:08;;;;;;;3.80;2.47;;;;;;;0.41;61.60;100482.34;5010866;28;20057;-40
2022/04/10 04:11:34;;;;;;;6.38;3.38;;;;;;;0.39;61.49;100479.72;5008636;28;20108;-43
2022/04/10 04:14:01;;;;;;;7.93;3.15;;;;;;;0.39;62.05;100479.72;5010194;28;20046;-43
2022/04/10 04:16:27;;;;;;;6.25;3.00;;;;;;;0.39;62.70;100474.63;5012748;28;20050;-40
2022/04/10 04:18:54;;;;;;;4.03;2.83;;;;;;;0.38;62.29;100473.75;5005459;28;20046;-44
2022/04/10 04:21:21;;;;;;;5.47;3.35;;;;;;;0.40;62.35;100471.25;5008561;28;20474;-43
2022/04/10 04:23:48;;;;;;;5.10;2.33;;;;;;;0.40;62.04;100471.25;5016534;28;20440;-42
2022/04/10 04:26:15;;;;;;;6.35;2.85;;;;;;;0.41;62.18;100469.59;5002480;28;20069;-40
2022/04/10 04:28:41;;;;;;;8.02;3.35;;;;;;;0.40;62.24;100476.34;5002282;28;20057;-44
2022/04/10 04:31:08;;;;;;;6.47;3.45;;;;;;;0.35;62.23;100483.81;5009178;28;20046;-45
2022/04/10 04:33:35;;;;;;;10.00;2.28;;;;;;;0.29;62.67;100485.19;5006405;28;20444;-41
2022/04/10 04:36:01;;;;;;;4.88;3.25;;;;;;;0.19;62.51;100479.69;5008476;28;20092;-41
2022/04/10 04:38:28;;;;;;;6.55;3.53;;;;;;;0.15;62.58;100487.09;4999173;28;20046;-43
2022/04/10 04:40:54;;;;;;;6.93;3.85;;;;;;;0.11;63.31;100484.41;5006951;28;20045;-40
2022/04/10 04:43:22;;;;;;;5.45;3.35;;;;;;;0.11;63.33;100483.53;5008406;28;20107;-43
2022/04/10 04:45:48;;;;;;;6.07;2.33;;;;;;;0.13;63.41;100492.13;5010714;28;20456;-43
2022/04/10 04:48:15;;;;;;;10.35;3.45;;;;;;;0.14;63.59;100480.25;5007211;28;20108;-41
2022/04/10 04:50:43;;;;;;;7.93;3.47;;;;;;;0.15;63.52;100485.44;5012701;28;20113;-43
2022/04/10 04:53:10;;;;;;;5.50;2.88;;;;;;;0.16;63.26;100487.16;5002579;28;20053;-44
2022/04/10 04:55:37;;;;;;;8.18;3.45;;;;;;;0.17;63.23;100494.00;5011257;28;20061;-40
2022/04/10 04:58:03;;;;;;;4.57;3.17;;;;;;;0.12;62.93;100490.38;5009900;28;20095;-42
2022/04/10 05:00:30;;;;;;;6.82;3.33;;;;;;;0.07;62.81;100489.31;5016490;28;20489;-41
2022/04/10 05:02:57;;;;;;;4.93;2.95;;;;;;;0.02;62.36;100493.28;5004464;28;20062;-40
2022/04/10 05:05:25;;;;;;;4.85;2.90;;;;;;;-0.04;62.54;100488.78;5007664;28;20412;-42
2022/04/10 05:07:51;;;;;;;6.90;3.75;;;;;;;-0.08;62.74;100486.88;5007376;28;20054;-40
2022/04/10 05:10:18;;;;;;;5.63;3.03;;;;;;;-0.12;62.18;100483.31;5011865;28;20045;-41
2022/04/10 05:12:45;;;;;;;5.28;3.53;;;;;;;-0.16;62.69;100489.06;5010655;28;20104;-41
2022/04/10 05:15:11;;;;;;;5.70;2.63;;;;;;;-0.18;62.60;100490.66;5011092;28;20042;-43
2022/04/10 05:17:38;;;;;;;7.38;3.67;;;;;;;-0.20;62.95;100497.38;5008928;28;20046;-40
2022/04/10 05:20:06;;;;;;;6.90;4.18;;;;;;;-0.24;62.88;100500.56;5008116;28;20050;-43
2022/04/10 05:22:33;;;;;;;5.88;3.55;;;;;;;-0.30;63.00;100501.13;5005586;28;20050;-41
2022/04/10 05:25:00;;;;;;;8.27;2.33;;;;;;;-0.33;63.30;100496.78;5009571;28;20437;-43
2022/04/10 05:27:26;;;;;;;5.13;3.40;;;;;;;-0.34;63.27;100495.00;5011719;28;20077;-40
2022/04/10 05:29:53;;;;;;;6.85;4.10;;;;;;;-0.36;63.14;100499.16;5006449;28;20037;-41
2022/04/10 05:32:20;;;;;;;5.93;2.88;;;;;;;-0.35;63.40;100498.34;5013723;28;20046;-40
2022/04/10 05:34:46;;;;;;;5.82;3.53;;;;;;;-0.32;63.12;100503.59;5026322;28;20053;-41
2022/04/10 05:37:13;;;;;;;6.85;4.00;;;;;;;-0.28;63.32;100502.97;5009875;28;20107;-43
2022/04/10 05:39:40;;;;;;;7.63;3.60;;;;;;;-0.22;63.10;100498.94;5004979;28;20053;-41
2022/04/10 05:42:08;;;;;;;6.47;4.22;;;;;;;-0.17;63.42;100500.91;5004322;28;20049;-41
2022/04/10 05:44:35;;;;;;;6.57;3.97;;;;;;;-0.11;63.13;100497.78;5008185;28;20053;-42
2022/04/10 05:47:02;;;;;;;7.18;4.32;;;;;;;-0.07;62.85;100502.25;5017050;28;20096;-42
2022/04/10 05:49:29;;;;;;;6.70;3.75;;;;;;;-0.02;63.07;100499.91;5011943;28;20064;-39
2022/04/10 05:51:55;;;;;;;4.95;3.05;;;;;;;0.03;62.88;100500.16;5012358;28;20128;-40
2022/04/10 05:54:22;;;;;;;6.95;3.65;;;;;;;0.07;62.92;100507.13;5007832;28;20093;-40
2022/04/10 05:56:49;;;;;;;9.18;3.50;;;;;;;0.13;63.03;100512.50;5010279;28;20085;-40
2022/04/10 05:59:15;;;;;;;8.02;3.63;;;;;;;0.19;62.75;100515.34;5013661;28;20053;-40
2022/04/10 06:01:42;;;;;;;7.15;4.47;;;;;;;0.27;63.11;100514.84;5000902;28;20704;-40
2022/04/10 06:04:08;;;;;;;11.52;4.90;;;;;;;0.35;62.72;100503.31;5006393;28;20064;-43
2022/04/10 06:06:35;;;;;;;4.82;3.67;;;;;;;0.44;63.00;100521.56;5010942;28;20107;-45
2022/04/10 06:09:02;;;;;;;7.80;4.28;;;;;;;0.49;62.64;100524.34;5008429;28;20129;-42
2022/04/10 06:11:28;;;;;;;6.20;3.58;;;;;;;0.58;62.48;100522.19;5006651;28;20096;-41
2022/04/10 06:13:55;;;;;;;8.13;4.63;;;;;;;0.69;63.19;100516.72;5012326;28;20050;-46
2022/04/10 06:16:21;;;;;;;10.60;4.80;;;;;;;0.79;62.08;100518.00;5006086;28;20047;-44
2022/04/10 06:18:48;;;;;;;10.75;4.32;;;;;;;0.91;62.96;100521.09;5020874;28;20076;-44
2022/04/10 06:21:15;;;;;;;7.20;4.35;;;;;;;1.04;62.71;100514.00;5016127;28;20045;-41
2022/04/10 06:23:41;;;;;;;6.82;4.03;;;;;;;1.17;61.86;100518.81;5015481;28;20970;-44
2022/04/10 06:26:08;;;;;;;8.13;3.88;;;;;;;1.28;63.11;100507.41;5017551;28;20734;-41
2022/04/10 06:28:34;;;;;;;9.68;4.35;;;;;;;1.40;62.97;100506.19;5003006;28;20054;-40
2022/04/10 06:31:01;;;;;;;9.07;4.25;;;;;;;1.53;62.43;100505.88;4998714;28;20039;-41
2022/04/10 06:33:28;;;;;;;12.82;5.07;;;;;;;1.67;62.82;100510.69;4997916;28;20590;-45
2022/04/10 06:35:55;;;;;;;11.82;4.30;;;;;;;1.80;62.28;100509.50;4994809;28;20054;-42
2022/04/10 06:38:24;;;;;;;8.73;4.15;;;;;;;2.00;62.65;100519.66;4991841;28;20409;-44
2022/04/10 06:40:51;;;;;;;9.82;4.72;;;;;;;2.12;61.85;100514.13;4995755;28;20053;-40
2022/04/10 06:43:20;;;;;;;6.57;4.07;;;;;;;2.24;61.74;100514.66;5002570;28;20044;-43
2022/04/10 06:45:47;;;;;;;6.88;4.47;;;;;;;2.41;62.54;100512.75;5004030;28;20054;-42
2022/04/10 06:48:14;;;;;;;9.43;4.75;;;;;;;2.59;61.62;100516.78;5005099;28;20072;-42
2022/04/10 06:50:41;;;;;;;6.97;3.10;;;;;;;2.76;61.42;100514.84;5001602;28;20660;-47
2022/04/10 06:53:08;;;;;;;10.90;5.18;;;;;;;2.94;62.30;100518.91;5003862;28;20413;-41
2022/04/10 06:55:34;;;;;;;8.75;4.80;;;;;;;3.11;61.35;100516.06;5006458;28;20063;-42
2022/04/10 06:58:01;;;;;;;7.45;4.75;;;;;;;3.36;61.06;100522.03;5003591;28;20485;-40
2022/04/10 07:00:27;;;;;;;8.95;3.90;;;;;;;3.58;61.70;100521.97;5008466;28;20046;-45
2022/04/10 07:02:54;;;;;;;7.78;4.25;;;;;;;3.73;61.47;100528.41;5008557;28;20615;-43
2022/04/10 07:05:21;;;;;;;6.28;4.13;;;;;;;3.92;61.13;100518.78;5010509;28;20045;-43
2022/04/10 07:07:48;;;;;;;6.32;4.07;;;;;;;4.30;61.42;100516.53;5013978;28;20042;-44
2022/04/10 07:10:15;;;;;;;9.23;4.40;;;;;;;4.77;61.21;100517.91;5007131;28;20057;-42
2022/04/10 07:12:41;;;;;;;7.65;4.10;;;;;;;5.34;61.37;100521.13;4999277;28;20057;-45
2022/04/10 07:15:08;;;;;;;7.68;3.75;;;;;;;5.74;60.95;100530.72;5001773;28;20042;-42
2022/04/10 07:17:35;;;;;;;5.95;3.83;;;;;;;6.00;60.41;100533.03;5002461;28;20054;-42
2022/04/10 07:20:02;;;;;;;6.40;3.53;;;;;;;6.32;59.83;100532.97;5003617;28;20830;-42
2022/04/10 07:25:15;;;;;;;6.47;4.03;;;;;;;7.51;58.03;100537.88;4999577;28;20050;-44
2022/04/10 07:27:42;;;;;;;7.65;4.85;;;;;;;8.16;57.24;100535.47;4999847;28;20054;-43
2022/04/10 07:30:08;;;;;;;8.75;4.78;;;;;;;8.83;57.20;100536.44;4999420;28;20820;-43
2022/04/10 07:32:37;;;;;;;6.80;4.35;;;;;;;9.45;56.73;100547.44;4996516;28;20046;-44
2022/04/10 07:35:06;;;;;;;7.03;4.40;;;;;;;10.07;55.69;100551.44;5001765;28;20058;-44
2022/04/10 07:37:32;;;;;;;4.95;3.95;;;;;;;10.69;54.74;100548.38;4995082;28;20065;-46
2022/04/10 07:39:59;;;;;;;9.07;4.55;;;;;;;11.30;53.50;100549.44;5001430;28;20042;-46
2022/04/10 07:42:29;;;;;;;5.72;3.83;;;;;;;11.86;52.04;100548.66;5001006;28;20077;-43
2022/04/10 07:45:05;;;;;;;7.45;3.92;;;;;;;12.29;50.52;100553.84;4996802;28;20045;-44
2022/04/10 07:47:32;;;;;;;7.85;4.25;;;;;;;12.63;49.38;100559.84;4999596;28;20061;-44
2022/04/10 07:49:58;;;;;;;5.97;3.60;;;;;;;12.93;49.63;100550.16;5002451;28;20104;-46
2022/04/10 07:52:25;;;;;;;6.82;3.47;;;;;;;13.21;48.80;100557.84;5001527;28;20072;-44
2022/04/10 07:54:53;;;;;;;6.15;3.33;;;;;;;13.69;47.99;100556.72;5004569;28;20054;-44
2022/04/10 07:57:20;;;;;;;4.90;3.05;;;;;;;14.20;47.25;100558.00;5003068;28;20050;-47
2022/04/10 07:59:46;;;;;;;3.92;3.25;;;;;;;14.55;45.93;100548.97;5002189;28;20042;-46
2022/04/10 08:02:13;;;;;;;5.53;2.90;;;;;;;14.98;45.37;100558.06;4999145;28;20608;-49
2022/04/10 08:04:40;;;;;;;6.70;3.28;;;;;;;15.19;44.50;100557.81;5009748;28;20050;-45
2022/04/10 08:07:08;;;;;;;7.38;2.00;;;;;;;15.34;44.21;100565.41;4998703;28;20624;-49
2022/04/10 08:09:34;;;;;;;5.40;4.15;;;;;;;15.61;44.32;100558.06;5004858;28;20485;-49
2022/04/10 08:12:01;;;;;;;4.18;2.55;;;;;;;16.00;43.86;100554.81;4996886;28;20049;-46
2022/04/10 08:14:28;;;;;;;5.10;3.05;;;;;;;16.42;42.45;100558.47;5003971;28;20100;-46
2022/04/10 08:16:55;;;;;;;6.78;3.60;;;;;;;16.79;41.34;100559.47;5006378;28;20072;-46
2022/04/10 08:19:22;;;;;;;5.70;2.63;;;;;;;17.11;41.43;100565.81;4997756;28;20093;-45
2022/04/10 08:21:48;;;;;;;4.93;2.20;;;;;;;17.41;41.01;100552.94;5007465;28;20112;-46
2022/04/10 08:24:15;;;;;;;2.72;1.85;;;;;;;17.50;39.08;100551.00;5006610;28;20076;-48
2022/04/10 08:26:42;;;;;;;3.58;1.88;;;;;;;17.32;37.50;100547.91;4999266;28;20050;-47
2022/04/10 08:29:08;;;;;;;4.75;2.28;;;;;;;16.68;36.95;100550.09;5007125;28;20555;-48
2022/04/10 08:31:35;;;;;;;3.38;1.58;;;;;;;16.11;38.36;100535.50;5007145;28;20662;-47
2022/04/10 08:34:02;;;;;;;4.70;1.88;;;;;;;15.92;38.88;100534.03;5014418;28;20159;-45
2022/04/10 08:36:28;;;;;;;2.05;1.85;;;;;;;16.18;38.87;100540.56;5005237;28;20054;-48
2022/04/10 08:38:56;;;;;;;2.72;2.08;;;;;;;16.13;39.28;100534.56;5003754;28;20057;-46
2022/04/10 08:41:29;;;;;;;2.10;1.88;;;;;;;15.96;38.02;100536.63;5004373;28;20053;-47
2022/04/10 08:43:56;;;;;;;4.05;2.38;;;;;;;15.47;38.84;100528.69;5003654;28;20133;-46
2022/04/10 08:46:24;;;;;;;3.28;2.35;;;;;;;15.66;39.34;100530.13;4999855;28;20058;-49
2022/04/10 08:48:52;;;;;;;4.47;2.28;;;;;;;15.87;38.65;100528.03;4998035;28;20050;-44
2022/04/10 08:51:18;;;;;;;5.55;1.15;;;;;;;16.49;39.25;100535.66;5005089;28;20433;-45
2022/04/10 08:53:46;;;;;;;3.17;1.85;;;;;;;17.11;38.61;100529.19;5004700;28;20532;-48
2022/04/10 08:56:14;;;;;;;8.00;2.08;;;;;;;17.64;36.86;100530.59;5001607;28;20073;-46
2022/04/10 08:58:40;;;;;;;3.20;1.77;;;;;;;17.67;36.28;100538.34;5000085;28;20045;-49
2022/04/10 09:01:11;;;;;;;3.97;2.13;;;;;;;17.53;36.23;100529.97;5011353;28;20107;-50
2022/04/10 09:03:38;;;;;;;3.95;2.70;;;;;;;17.54;36.40;100536.94;5013942;28;20060;-47
2022/04/10 09:06:06;;;;;;;2.65;2.17;;;;;;;17.64;36.45;100535.81;5007570;28;20081;-48
2022/04/10 09:08:33;;;;;;;3.67;2.50;;;;;;;18.04;35.37;100540.94;5009722;28;20098;-45
2022/04/10 09:13:46;;;;;;;1.08;0.60;;;;;;;18.54;34.89;100544.91;5028907;28;20417;-47
2022/04/10 09:16:17;;;;;;;3.67;0.70;;;;;;;18.50;34.41;100536.25;5027457;28;20057;-47
2022/04/10 09:21:32;;;;;;;2.72;0.63;;;;;;;17.97;33.38;100528.00;5049300;28;20412;-46
2022/04/10 09:24:03;;;;;;;3.67;1.25;;;;;;;17.73;33.59;100538.19;5033921;28;20045;-48
2022/04/10 09:29:23;;;;;;;2.75;1.98;;;;;;;17.22;34.29;100526.31;5063732;28;20388;-45
2022/04/10 09:31:51;;;;;;;3.67;2.67;;;;;;;17.50;34.82;100519.56;5023782;28;20657;-49
2022/04/10 09:34:21;;;;;;;3.92;2.67;;;;;;;17.86;33.21;100528.28;5025471;28;20720;-49
2022/04/10 09:37:08;;;;;;;5.07;3.00;;;;;;;17.83;32.59;100523.09;5010337;28;20710;-49
2022/04/10 09:39:37;;;;;;;2.63;2.17;;;;;;;18.04;33.72;100523.44;5023144;28;20116;-47
2022/04/10 09:42:07;;;;;;;4.78;2.45;;;;;;;18.06;33.22;100512.91;5025391;28;20080;-46
2022/04/10 09:44:37;;;;;;;3.95;0.98;;;;;;;18.19;33.00;100518.72;5023471;28;20432;-48
2022/04/10 09:49:41;;;;;;;4.72;1.20;;;;;;;17.43;33.51;100511.00;5023985;27;20402;-47
2022/04/10 09:52:11;;;;;;;2.72;1.20;;;;;;;16.86;33.75;100514.00;5033513;28;20045;-47
2022/04/10 09:57:16;;;;;;;4.15;1.08;;;;;;;17.09;34.95;100510.00;5048503;27;20905;-53
2022/04/10 09:59:44;;;;;;;1.90;0.98;;;;;;;17.24;34.16;100514.06;5025651;28;20053;-47
2022/04/10 10:02:13;;;;;;;3.40;1.58;;;;;;;17.09;33.47;100510.00;5024847;28;20050;-49
2022/04/10 10:04:41;;;;;;;3.05;1.45;;;;;;;17.04;34.33;100501.38;5026781;28;20073;-46
2022/04/10 10:09:48;;;;;;;3.08;1.17;;;;;;;17.30;33.81;100499.97;5042982;27;20394;-49
2022/04/10 10:12:16;;;;;;;3.80;1.05;;;;;;;17.24;33.31;100497.47;5027623;28;20052;-46
2022/04/10 10:14:44;;;;;;;4.82;1.85;;;;;;;17.18;32.48;100491.50;5026249;28;20057;-47
2022/04/10 10:17:11;;;;;;;1.58;1.00;;;;;;;17.27;33.91;100494.78;5028051;28;20350;-48
2022/04/10 10:19:41;;;;;;;2.53;1.10;;;;;;;17.30;33.79;100492.94;5023635;28;20045;-53
2022/04/10 10:22:12;;;;;;;3.80;1.35;;;;;;;17.00;33.09;100504.97;5008176;28;20049;-48
2022/04/10 10:24:51;;;;;;;2.63;1.10;;;;;;;17.21;34.59;100504.53;5029471;28;20057;-48
2022/04/10 10:30:35;;;;;;;3.22;1.60;;;;;;;17.30;33.47;100498.19;5051803;27;20391;-47
2022/04/10 10:33:21;;;;;;;3.15;1.50;;;;;;;17.44;34.49;100503.13;5029546;28;20115;-47
2022/04/10 10:35:51;;;;;;;4.05;1.35;;;;;;;17.41;33.99;100504.94;5024449;28;20104;-48
2022/04/10 10:38:26;;;;;;;2.40;1.02;;;;;;;16.92;33.53;100503.38;5023142;28;20045;-49
2022/04/10 10:41:08;;;;;;;7.50;2.05;;;;;;;17.01;35.74;100496.22;5025231;28;20115;-48
2022/04/10 10:43:34;;;;;;;5.50;1.52;;;;;;;17.09;34.38;100496.94;5023501;28;20468;-49
2022/04/10 10:46:01;;;;;;;2.35;1.17;;;;;;;16.98;34.48;100493.69;5024795;28;20100;-50
2022/04/10 10:48:50;;;;;;;4.53;1.17;;;;;;;16.35;34.36;100494.09;5024927;28;20045;-48
2022/04/10 10:56:31;;;;;;;5.35;1.48;;;;;;;15.89;35.21;100483.59;5061272;27;20391;-48
2022/04/10 10:59:36;;;;;;;2.47;1.38;;;;;;;15.54;34.68;100468.50;5023062;28;20046;-50
2022/04/10 11:04:45;;;;;;;3.50;0.93;;;;;;;15.14;36.24;100458.72;5024669;27;20414;-45
2022/04/10 11:07:20;;;;;;;2.00;1.20;;;;;;;15.01;35.81;100458.91;5001439;28;20046;-46
2022/04/10 11:09:52;;;;;;;3.05;1.40;;;;;;;15.12;36.16;100453.50;5002947;28;20104;-46
2022/04/10 11:12:21;;;;;;;3.45;1.30;;;;;;;15.21;36.44;100454.25;5001005;28;20093;-47
2022/04/10 11:14:51;;;;;;;2.97;1.05;;;;;;;15.25;36.10;100445.50;5021542;28;20050;-45
2022/04/10 11:17:20;;;;;;;3.58;1.35;;;;;;;15.10;35.23;100444.84;5020047;28;20050;-44
2022/04/10 11:19:49;;;;;;;;;;;;;;;14.85;35.82;100446.94;5007771;28;20144;-44
2022/04/10 11:22:22;;;;;;;3.80;1.42;;;;;;;14.92;36.44;100442.53;5000463;28;19984;-44
2022/04/10 11:24:51;;;;;;;3.42;1.58;;;;;;;14.83;37.16;100438.28;4990162;28;20047;-44
2022/04/10 11:27:58;;;;;;;2.47;1.23;;;;;;;14.71;36.89;100436.69;4993980;28;20042;-44
2022/04/10 11:30:30;;;;;;;4.53;1.50;;;;;;;14.94;37.82;100430.31;4994178;28;20049;-48
2022/04/10 11:35:36;;;;;;;5.13;3.08;;;;;;;14.73;37.46;100424.50;5057338;28;20411;-47
2022/04/10 11:38:06;;;;;;;3.47;2.88;;;;;;;14.78;38.06;100425.31;5013056;28;20046;-45
2022/04/10 11:40:35;;;;;;;3.95;3.22;;;;;;;15.05;37.82;100428.41;5012364;28;20767;-48
2022/04/10 11:43:03;;;;;;;3.30;3.00;;;;;;;15.48;37.91;100418.16;5009037;28;20449;-46
2022/04/10 11:45:31;;;;;;;16.52;3.30;;;;;;;15.46;36.51;100420.78;5010230;28;20050;-50
2022/04/10 11:48:16;;;;;;;4.80;3.08;;;;;;;15.18;35.94;100412.56;5009293;28;20096;-46
2022/04/10 11:50:43;;;;;;;5.30;3.63;;;;;;;15.20;36.49;100410.78;5015671;28;20058;-46
2022/04/10 11:53:14;;;;;;;3.70;3.30;;;;;;;15.29;36.54;100413.25;5016356;28;20125;-44
2022/04/10 11:58:21;;;;;;;3.45;1.75;;;;;;;15.23;36.06;100408.13;5031158;27;20425;-45
2022/04/10 12:00:53;;;;;;;2.65;1.15;;;;;;;15.04;36.30;100401.44;5019996;28;20053;-49
2022/04/10 12:03:22;;;;;;;3.10;1.30;;;;;;;14.81;36.31;100399.19;5025465;28;20041;-47
2022/04/10 12:05:50;;;;;;;3.95;1.02;;;;;;;14.64;35.59;100400.28;5022459;28;20703;-44
2022/04/10 12:08:18;;;;;;;2.63;1.08;;;;;;;14.57;37.86;100396.03;5027020;28;20057;-45
2022/04/10 12:11:02;;;;;;;2.88;0.93;;;;;;;14.48;36.20;100390.94;5026905;28;20049;-49